createdAt,value
2019-03-17T00:01:22.214Z,9.80
2019-03-17T00:04:31.410Z,9.80
2019-03-17T00:07:26.686Z,9.80
2019-03-17T00:10:28.891Z,9.80
2019-03-17T00:13:31.142Z,9.80
2019-03-17T00:16:33.351Z,9.90
2019-03-17T00:19:35.587Z,9.90
2019-03-17T00:22:37.838Z,9.90
2019-03-17T00:25:40.131Z,9.80
2019-03-17T00:28:44.432Z,9.80
2019-03-17T00:31:44.620Z,9.70
2019-03-17T00:34:46.841Z,9.70
2019-03-17T00:37:49.056Z,9.60
2019-03-17T00:40:51.254Z,9.60
2019-03-17T00:43:53.477Z,9.50
2019-03-17T00:46:55.687Z,9.50
2019-03-17T00:49:57.904Z,9.50
2019-03-17T00:53:00.130Z,9.40
2019-03-17T00:56:02.412Z,9.40
2019-03-17T00:59:04.671Z,9.40
2019-03-17T01:02:06.941Z,9.30
2019-03-17T01:05:09.202Z,9.30
2019-03-17T01:08:11.456Z,9.30
2019-03-17T01:11:13.682Z,9.20
2019-03-17T01:14:15.927Z,9.10
2019-03-17T01:17:18.178Z,9.10
2019-03-17T01:20:20.441Z,9.00
2019-03-17T01:23:22.660Z,9.00
2019-03-17T01:26:24.879Z,9.00
2019-03-17T01:29:27.071Z,9.00
2019-03-17T01:32:29.349Z,9.00
2019-03-17T01:35:32.651Z,9.00
2019-03-17T01:38:33.823Z,9.00
2019-03-17T01:41:36.095Z,9.00
2019-03-17T01:44:38.393Z,9.00
2019-03-17T01:47:40.649Z,8.90
2019-03-17T01:50:42.975Z,8.90
2019-03-17T01:53:45.203Z,8.80
2019-03-17T01:56:47.406Z,8.70
2019-03-17T01:59:49.608Z,8.70
2019-03-17T02:02:51.846Z,8.60
2019-03-17T02:05:54.098Z,8.50
2019-03-17T02:08:56.327Z,8.50
2019-03-17T02:11:58.563Z,8.40
2019-03-17T02:15:00.798Z,8.30
2019-03-17T02:18:03.107Z,8.20
2019-03-17T02:21:05.337Z,8.10
2019-03-17T02:24:07.567Z,8.10
2019-03-17T02:27:09.785Z,8.00
2019-03-17T02:30:12.059Z,7.90
2019-03-17T02:33:14.270Z,7.90
2019-03-17T02:36:16.512Z,7.80
2019-03-17T02:39:18.741Z,7.80
2019-03-17T02:42:21.008Z,7.80
2019-03-17T02:45:23.282Z,7.80
2019-03-17T02:48:25.511Z,7.80
2019-03-17T02:51:27.776Z,7.80
2019-03-17T02:54:29.993Z,7.70
2019-03-17T02:57:32.250Z,7.70
2019-03-17T03:00:34.537Z,7.60
2019-03-17T03:03:36.801Z,7.60
2019-03-17T03:06:39.041Z,7.50
2019-03-17T03:09:41.297Z,7.50
2019-03-17T03:12:43.490Z,7.40
2019-03-17T03:15:45.733Z,7.40
2019-03-17T03:18:48.015Z,7.30
2019-03-17T03:21:50.257Z,7.30
2019-03-17T03:24:52.497Z,7.30
2019-03-17T03:27:54.765Z,7.20
2019-03-17T03:30:57.095Z,7.20
2019-03-17T03:33:59.224Z,7.20
2019-03-17T03:37:01.451Z,7.10
2019-03-17T03:40:03.897Z,7.10
2019-03-17T03:43:06.136Z,7.10
2019-03-17T03:46:08.445Z,7.10
2019-03-17T03:49:10.684Z,7.10
2019-03-17T03:52:12.883Z,7.00
2019-03-17T03:55:15.129Z,7.00
2019-03-17T03:58:17.410Z,7.00
2019-03-17T04:01:19.645Z,6.90
2019-03-17T04:04:21.892Z,6.90
2019-03-17T04:07:24.173Z,6.80
2019-03-17T04:10:26.386Z,6.80
2019-03-17T04:13:28.628Z,6.80
2019-03-17T04:16:30.863Z,6.80
2019-03-17T04:19:33.134Z,6.70
2019-03-17T04:22:35.374Z,6.70
2019-03-17T04:25:37.604Z,6.70
2019-03-17T04:28:39.785Z,6.70
2019-03-17T04:31:42.107Z,6.70
2019-03-17T04:34:44.340Z,6.60
2019-03-17T04:37:46.582Z,6.60
2019-03-17T04:40:48.795Z,6.60
2019-03-17T04:43:51.075Z,6.60
2019-03-17T04:46:53.291Z,6.70
2019-03-17T04:49:55.496Z,6.70
2019-03-17T04:52:57.708Z,6.70
2019-03-17T04:55:59.920Z,6.70
2019-03-17T04:59:02.133Z,6.70
2019-03-17T05:02:04.319Z,6.60
2019-03-17T05:05:06.613Z,6.60
2019-03-17T05:08:08.803Z,6.70
2019-03-17T05:11:11.038Z,6.60
2019-03-17T05:14:13.263Z,6.60
2019-03-17T05:17:15.505Z,6.60
2019-03-17T05:20:17.727Z,6.50
2019-03-17T05:23:19.926Z,6.50
2019-03-17T05:26:22.148Z,6.50
2019-03-17T05:29:24.355Z,6.50
2019-03-17T05:32:26.575Z,6.50
2019-03-17T05:35:28.860Z,6.40
2019-03-17T05:38:31.097Z,6.40
2019-03-17T05:41:33.343Z,6.40
2019-03-17T05:44:35.531Z,6.40
2019-03-17T05:47:37.781Z,6.40
2019-03-17T05:50:40.007Z,6.40
2019-03-17T05:53:42.252Z,6.40
2019-03-17T05:56:44.460Z,6.50
2019-03-17T05:59:46.675Z,6.50
2019-03-17T06:02:48.893Z,6.50
2019-03-17T06:05:51.130Z,6.50
2019-03-17T06:08:53.376Z,6.50
2019-03-17T06:11:56.301Z,6.60
2019-03-17T06:14:58.531Z,6.60
2019-03-17T06:18:00.740Z,6.70
2019-03-17T06:21:03.003Z,6.80
2019-03-17T06:24:05.259Z,6.90
2019-03-17T06:27:07.510Z,7.10
2019-03-17T06:30:09.791Z,7.30
2019-03-17T06:33:12.048Z,7.40
2019-03-17T06:36:14.281Z,7.50
2019-03-17T06:39:16.558Z,7.60
2019-03-17T06:42:18.796Z,7.70
2019-03-17T06:45:21.037Z,7.80
2019-03-17T06:48:23.283Z,7.80
2019-03-17T06:51:25.527Z,7.90
2019-03-17T06:54:27.927Z,8.00
2019-03-17T06:57:30.157Z,8.10
2019-03-17T07:00:32.375Z,8.20
2019-03-17T07:03:34.613Z,8.20
2019-03-17T07:06:36.822Z,8.30
2019-03-17T07:09:39.104Z,8.40
2019-03-17T07:12:41.363Z,8.60
2019-03-17T07:15:43.597Z,8.70
2019-03-17T07:18:45.919Z,8.70
2019-03-17T07:21:48.117Z,8.80
2019-03-17T07:24:50.320Z,9.00
2019-03-17T07:27:52.545Z,9.10
2019-03-17T07:30:54.784Z,9.20
2019-03-17T07:33:56.983Z,9.30
2019-03-17T07:36:59.203Z,9.40
2019-03-17T07:40:01.460Z,9.50
2019-03-17T07:43:03.700Z,9.60
2019-03-17T07:46:05.915Z,9.70
2019-03-17T07:49:08.217Z,9.70
2019-03-17T07:52:10.428Z,9.90
2019-03-17T07:55:12.718Z,10.00
2019-03-17T07:58:14.891Z,10.10
2019-03-17T08:01:17.155Z,10.20
2019-03-17T08:04:19.416Z,10.30
2019-03-17T08:07:21.755Z,10.50
2019-03-17T08:10:23.994Z,10.60
2019-03-17T08:13:26.200Z,10.80
2019-03-17T08:16:28.467Z,11.00
2019-03-17T08:19:30.720Z,11.20
2019-03-17T08:22:32.915Z,11.40
2019-03-17T08:25:35.135Z,11.50
2019-03-17T08:28:37.331Z,11.70
2019-03-17T08:31:39.572Z,11.90
2019-03-17T08:34:41.800Z,12.10
2019-03-17T08:37:44.016Z,12.20
2019-03-17T08:40:46.272Z,12.40
2019-03-17T08:43:54.257Z,12.70
2019-03-17T08:46:50.720Z,12.80
2019-03-17T08:49:52.913Z,12.90
2019-03-17T08:52:55.188Z,13.10
2019-03-17T08:55:57.421Z,13.20
2019-03-17T08:58:59.644Z,13.40
2019-03-17T09:02:01.887Z,13.50
2019-03-17T09:05:04.313Z,13.60
2019-03-17T09:08:06.626Z,13.80
2019-03-17T09:11:08.868Z,13.90
2019-03-17T09:14:11.096Z,14.10
2019-03-17T09:17:14.664Z,14.20
2019-03-17T09:20:15.585Z,14.30
2019-03-17T09:23:17.791Z,14.40
2019-03-17T09:26:20.028Z,14.50
2019-03-17T09:29:22.256Z,14.60
2019-03-17T09:32:24.480Z,14.80
2019-03-17T09:35:26.751Z,15.00
2019-03-17T09:38:28.977Z,15.10
2019-03-17T09:41:31.206Z,15.20
2019-03-17T09:44:33.434Z,15.30
2019-03-17T09:47:35.680Z,15.30
2019-03-17T09:50:37.930Z,15.40
2019-03-17T09:53:40.167Z,15.50
2019-03-17T09:56:42.409Z,15.60
2019-03-17T09:59:44.621Z,15.70
2019-03-17T10:02:46.853Z,15.70
2019-03-17T10:05:49.616Z,15.80
2019-03-17T10:08:59.904Z,15.90
2019-03-17T10:11:53.619Z,16.00
2019-03-17T10:14:55.835Z,16.10
2019-03-17T10:17:58.108Z,16.20
2019-03-17T10:21:00.296Z,16.40
2019-03-17T10:24:02.545Z,16.50
2019-03-17T10:27:04.764Z,16.80
2019-03-17T10:30:08.420Z,16.90
2019-03-17T10:33:10.672Z,16.90
2019-03-17T10:36:12.899Z,16.90
2019-03-17T10:39:15.131Z,16.90
2019-03-17T10:42:17.390Z,16.90
2019-03-17T10:45:19.615Z,16.90
2019-03-17T10:48:21.862Z,16.90
2019-03-17T10:51:24.132Z,16.90
2019-03-17T10:54:26.369Z,16.90
2019-03-17T10:57:28.615Z,16.90
2019-03-17T11:00:30.863Z,16.90
2019-03-17T11:03:33.066Z,17.00
2019-03-17T11:06:35.266Z,17.00
2019-03-17T11:09:37.507Z,17.00
2019-03-17T11:12:39.717Z,17.00
2019-03-17T11:15:41.931Z,17.20
2019-03-17T11:18:44.169Z,17.40
2019-03-17T11:21:46.367Z,17.50
2019-03-17T11:24:48.575Z,17.60
2019-03-17T11:27:50.788Z,17.70
2019-03-17T11:30:56.872Z,17.70
2019-03-17T11:33:59.044Z,17.80
2019-03-17T11:37:01.263Z,17.70
2019-03-17T11:40:04.379Z,17.70
2019-03-17T11:43:06.587Z,17.80
2019-03-17T11:46:08.787Z,17.90
2019-03-17T11:49:11.100Z,17.90
2019-03-17T11:52:13.437Z,17.90
2019-03-17T11:55:15.740Z,18.00
2019-03-17T11:58:18.045Z,17.90
2019-03-17T12:01:20.383Z,17.90
2019-03-17T12:04:22.719Z,17.80
2019-03-17T12:07:24.941Z,17.70
2019-03-17T12:10:27.250Z,17.70
2019-03-17T12:13:29.541Z,17.70
2019-03-17T12:16:32.052Z,17.60
2019-03-17T12:19:34.438Z,17.60
2019-03-17T12:22:36.812Z,17.60
2019-03-17T12:25:39.163Z,17.60
2019-03-17T12:28:41.489Z,17.60
2019-03-17T12:31:43.910Z,17.50
2019-03-17T12:34:48.339Z,17.50
2019-03-17T12:37:50.776Z,17.50
2019-03-17T12:40:53.019Z,17.50
2019-03-17T12:43:55.247Z,17.50
2019-03-17T12:46:57.507Z,17.40
2019-03-17T12:49:59.868Z,17.40
2019-03-17T12:53:02.091Z,17.40
2019-03-17T12:56:04.420Z,17.40
2019-03-17T12:59:06.800Z,17.30
2019-03-17T13:02:09.228Z,17.30
2019-03-17T13:05:11.641Z,17.30
2019-03-17T13:08:13.976Z,17.30
2019-03-17T13:11:16.392Z,17.30
2019-03-17T13:14:18.855Z,17.30
2019-03-17T13:17:21.124Z,17.30
2019-03-17T13:20:23.421Z,17.30
2019-03-17T13:23:27.208Z,17.30
2019-03-17T13:26:31.567Z,17.30
2019-03-17T13:29:34.079Z,17.30
2019-03-17T13:32:36.539Z,17.30
2019-03-17T13:35:38.959Z,17.30
2019-03-17T13:38:41.216Z,17.30
2019-03-17T13:41:43.472Z,17.30
2019-03-17T13:44:47.099Z,17.40
2019-03-17T13:47:49.662Z,17.40
2019-03-17T13:50:51.950Z,17.40
2019-03-17T13:53:54.183Z,17.40
2019-03-17T13:56:56.431Z,17.40
2019-03-17T13:59:58.841Z,17.40
2019-03-17T14:03:01.216Z,17.30
2019-03-17T14:06:03.520Z,17.40
2019-03-17T14:09:06.262Z,17.40
2019-03-17T14:12:08.670Z,17.40
2019-03-17T14:15:11.870Z,17.40
2019-03-17T14:18:14.185Z,17.30
2019-03-17T14:21:16.585Z,17.30
2019-03-17T14:24:18.915Z,17.30
2019-03-17T14:27:21.231Z,17.20
2019-03-17T14:30:23.716Z,17.20
2019-03-17T14:33:26.072Z,17.20
2019-03-17T14:36:28.416Z,17.10
2019-03-17T14:39:30.800Z,17.00
2019-03-17T14:42:33.163Z,17.00
2019-03-17T14:45:35.493Z,16.90
2019-03-17T14:48:37.807Z,16.90
2019-03-17T14:51:39.999Z,16.80
2019-03-17T14:54:42.427Z,16.80
2019-03-17T14:57:44.839Z,16.80
2019-03-17T15:00:47.091Z,16.70
2019-03-17T15:03:49.378Z,16.70
2019-03-17T15:06:51.774Z,16.60
2019-03-17T15:09:54.127Z,16.60
2019-03-17T15:12:56.649Z,16.50
2019-03-17T15:16:02.962Z,16.40
2019-03-17T15:19:01.476Z,16.40
2019-03-17T15:22:03.839Z,16.30
2019-03-17T15:25:06.934Z,16.30
2019-03-17T15:28:09.251Z,16.20
2019-03-17T15:31:12.596Z,16.20
2019-03-17T15:34:13.828Z,16.10
2019-03-17T15:37:16.275Z,16.00
2019-03-17T15:40:18.616Z,16.00
2019-03-17T15:43:20.836Z,15.90
2019-03-17T15:46:23.112Z,15.90
2019-03-17T15:49:25.488Z,15.80
2019-03-17T15:52:27.851Z,15.80
2019-03-17T15:55:30.066Z,15.80
2019-03-17T15:58:32.462Z,15.70
2019-03-17T16:01:34.809Z,15.70
2019-03-17T16:04:37.043Z,15.70
2019-03-17T16:07:42.424Z,15.70
2019-03-17T16:10:41.694Z,15.70
2019-03-17T16:13:44.015Z,15.70
2019-03-17T16:16:46.263Z,15.60
2019-03-17T16:19:48.547Z,15.60
2019-03-17T16:22:50.961Z,15.50
2019-03-17T16:25:54.721Z,15.50
2019-03-17T16:28:57.116Z,15.40
2019-03-17T16:31:59.356Z,15.40
2019-03-17T16:35:01.806Z,15.30
2019-03-17T16:38:04.222Z,15.30
2019-03-17T16:41:06.507Z,15.20
2019-03-17T16:44:08.833Z,15.20
2019-03-17T16:47:11.067Z,15.10
2019-03-17T16:50:14.172Z,15.10
2019-03-17T16:53:16.555Z,14.40
2019-03-17T16:56:19.031Z,14.10
2019-03-17T16:59:21.449Z,13.70
2019-03-17T17:02:23.931Z,13.20
2019-03-17T17:05:26.438Z,12.60
2019-03-17T17:08:28.708Z,12.00
2019-03-17T17:11:31.040Z,11.50
2019-03-17T17:14:33.443Z,11.10
2019-03-17T17:17:35.825Z,10.50
2019-03-17T17:20:38.456Z,10.00
2019-03-17T17:23:40.666Z,9.60
2019-03-17T17:26:43.783Z,9.20
2019-03-17T17:29:46.661Z,8.80
2019-03-17T17:32:49.039Z,8.60
2019-03-17T17:35:51.267Z,8.30
2019-03-17T17:38:53.550Z,8.10
2019-03-17T17:42:08.004Z,7.80
2019-03-17T17:44:58.202Z,7.40
2019-03-17T17:48:01.080Z,7.10
2019-03-17T17:51:03.453Z,6.70
2019-03-17T17:54:05.719Z,6.60
2019-03-17T17:57:08.014Z,6.40
2019-03-17T18:00:12.306Z,6.40
2019-03-17T18:03:14.689Z,6.30
2019-03-17T18:06:16.921Z,6.20
2019-03-17T18:09:19.214Z,6.20
2019-03-17T18:12:21.568Z,6.20
2019-03-17T18:15:24.151Z,6.10
2019-03-17T18:18:26.136Z,6.00
2019-03-17T18:24:56.604Z,6.00
2019-03-17T18:27:58.966Z,6.00
2019-03-17T18:34:50.582Z,5.90
2019-03-17T18:37:51.728Z,5.80
2019-03-17T18:40:54.127Z,5.70
2019-03-17T18:43:56.501Z,5.60
2019-03-17T18:51:03.768Z,5.50
2019-03-17T18:54:06.145Z,5.40
2019-03-17T18:57:08.469Z,5.30
2019-03-17T19:00:13.596Z,5.20
2019-03-17T19:03:15.967Z,5.20
2019-03-17T19:06:18.275Z,5.20
2019-03-17T19:09:20.501Z,5.10
2019-03-17T19:12:22.788Z,5.10
2019-03-17T19:15:25.147Z,5.00
2019-03-17T19:18:27.454Z,5.00
2019-03-17T19:21:29.656Z,5.00
2019-03-17T19:24:31.912Z,5.00
2019-03-17T19:27:34.171Z,4.90
2019-03-17T19:30:36.504Z,4.90
2019-03-17T19:33:38.848Z,4.90
2019-03-17T19:36:41.245Z,4.90
2019-03-17T19:39:43.545Z,4.90
2019-03-17T19:42:57.409Z,4.90
2019-03-17T19:45:48.063Z,4.90
2019-03-17T19:48:50.447Z,4.90
2019-03-17T19:51:52.748Z,4.90
2019-03-17T19:54:55.035Z,5.00
2019-03-17T19:57:57.687Z,5.00
2019-03-17T20:00:59.973Z,5.00
2019-03-17T20:04:02.440Z,4.90
2019-03-17T20:07:04.860Z,4.90
2019-03-17T20:10:09.543Z,4.90
2019-03-17T20:13:12.307Z,4.90
2019-03-17T20:16:14.269Z,4.80
2019-03-17T20:19:17.489Z,4.90
2019-03-17T20:22:20.449Z,4.80
2019-03-17T20:25:22.699Z,4.80
2019-03-17T20:28:25.719Z,4.80
2019-03-17T20:31:28.295Z,4.80
2019-03-17T20:34:30.675Z,4.80
2019-03-17T20:37:32.900Z,4.80
2019-03-17T20:40:35.277Z,4.80
2019-03-17T20:43:38.539Z,4.80
2019-03-17T20:46:41.404Z,4.80
2019-03-17T20:49:43.644Z,4.80
2019-03-17T20:52:45.894Z,4.80
2019-03-17T20:55:48.180Z,4.80
2019-03-17T20:58:50.371Z,4.80
2019-03-17T21:01:52.635Z,4.80
2019-03-17T21:04:54.845Z,4.80
2019-03-17T21:07:57.679Z,4.80
2019-03-17T21:10:59.907Z,4.70
2019-03-17T21:14:02.187Z,4.70
2019-03-17T21:17:04.440Z,4.70
2019-03-17T21:20:09.339Z,4.60
2019-03-17T21:23:11.535Z,4.60
2019-03-17T21:26:13.762Z,4.60
2019-03-17T21:29:15.980Z,4.60
2019-03-17T21:32:18.228Z,4.60
2019-03-17T21:35:20.463Z,4.60
2019-03-17T21:38:22.707Z,4.60
2019-03-17T21:41:24.923Z,4.50
2019-03-17T21:44:27.155Z,4.40
2019-03-17T21:47:29.349Z,4.40
2019-03-17T21:50:31.659Z,4.40
2019-03-17T21:53:33.885Z,4.40
2019-03-17T21:56:36.118Z,4.30
2019-03-17T21:59:38.371Z,4.40
2019-03-17T22:02:40.600Z,4.30
2019-03-17T22:05:42.841Z,4.30
2019-03-17T22:08:45.065Z,4.30
2019-03-17T22:11:47.256Z,4.30
2019-03-17T22:14:49.480Z,4.30
2019-03-17T22:17:51.772Z,4.30
2019-03-17T22:20:53.909Z,4.20
2019-03-17T22:23:56.132Z,4.20
2019-03-17T22:26:58.331Z,4.20
2019-03-17T22:30:00.539Z,4.20
2019-03-17T22:33:02.827Z,4.20
2019-03-17T22:36:05.061Z,4.20
2019-03-17T22:39:07.272Z,4.10
2019-03-17T22:42:09.665Z,4.10
2019-03-17T22:45:12.002Z,4.10
2019-03-17T22:48:14.147Z,4.10
2019-03-17T22:51:16.331Z,4.10
2019-03-17T22:54:18.566Z,4.00
2019-03-17T22:57:20.796Z,4.00
2019-03-17T23:00:27.764Z,4.00
2019-03-17T23:03:29.945Z,4.10
2019-03-17T23:06:32.144Z,4.10
2019-03-17T23:09:34.418Z,4.00
2019-03-17T23:12:36.639Z,4.00
2019-03-17T23:15:38.820Z,4.00
2019-03-17T23:18:41.012Z,3.90
2019-03-17T23:21:43.260Z,3.90
2019-03-17T23:24:45.483Z,3.80
2019-03-17T23:27:47.688Z,3.80
2019-03-17T23:30:49.914Z,3.80
2019-03-17T23:33:52.113Z,3.80
2019-03-17T23:36:54.318Z,3.70
2019-03-17T23:39:56.589Z,3.80
2019-03-17T23:42:58.824Z,3.70
2019-03-17T23:46:01.077Z,3.70
2019-03-17T23:49:03.320Z,3.70
2019-03-17T23:52:05.511Z,3.70
2019-03-17T23:55:08.244Z,3.70
2019-03-17T23:58:10.472Z,3.70
